sensor_id;sensor_type;location;lat;lon;timestamp;P1;durP1;ratioP1;P2;durP2;ratioP2
62584;SDS011;48643;51.670;5.808;2023-06-10T00:00:28;11.25;;;5.82;;
62584;SDS011;48643;51.670;5.808;2023-06-10T00:02:58;7.95;;;5.63;;
62584;SDS011;48643;51.670;5.808;2023-06-10T00:05:26;13.63;;;6.17;;
62584;SDS011;48643;51.670;5.808;2023-06-10T00:07:56;12.02;;;6.00;;
62584;SDS011;48643;51.670;5.808;2023-06-10T00:10:26;8.77;;;5.93;;
62584;SDS011;48643;51.670;5.808;2023-06-10T00:12:52;7.93;;;5.78;;
62584;SDS011;48643;51.670;5.808;2023-06-10T00:15:19;7.65;;;5.40;;
62584;SDS011;48643;51.670;5.808;2023-06-10T00:17:46;8.30;;;5.88;;
62584;SDS011;48643;51.670;5.808;2023-06-10T00:20:13;9.02;;;5.90;;
62584;SDS011;48643;51.670;5.808;2023-06-10T00:22:40;8.32;;;6.05;;
62584;SDS011;48643;51.670;5.808;2023-06-10T00:25:11;9.90;;;5.70;;
62584;SDS011;48643;51.670;5.808;2023-06-10T00:27:38;9.05;;;5.60;;
62584;SDS011;48643;51.670;5.808;2023-06-10T00:30:06;8.63;;;5.35;;
62584;SDS011;48643;51.670;5.808;2023-06-10T00:32:34;8.13;;;5.60;;
62584;SDS011;48643;51.670;5.808;2023-06-10T00:35:02;8.18;;;5.93;;
62584;SDS011;48643;51.670;5.808;2023-06-10T00:37:30;8.57;;;5.75;;
62584;SDS011;48643;51.670;5.808;2023-06-10T00:39:58;9.25;;;5.65;;
62584;SDS011;48643;51.670;5.808;2023-06-10T00:42:25;6.65;;;5.35;;
62584;SDS011;48643;51.670;5.808;2023-06-10T00:44:54;7.75;;;6.00;;
62584;SDS011;48643;51.670;5.808;2023-06-10T00:47:21;8.68;;;6.03;;
62584;SDS011;48643;51.670;5.808;2023-06-10T00:49:48;7.65;;;5.90;;
62584;SDS011;48643;51.670;5.808;2023-06-10T00:52:17;10.23;;;5.97;;
62584;SDS011;48643;51.670;5.808;2023-06-10T00:54:46;9.55;;;5.85;;
62584;SDS011;48643;51.670;5.808;2023-06-10T00:57:14;7.25;;;6.03;;
62584;SDS011;48643;51.670;5.808;2023-06-10T00:59:41;7.20;;;5.80;;
62584;SDS011;48643;51.670;5.808;2023-06-10T01:02:08;9.35;;;5.90;;
62584;SDS011;48643;51.670;5.808;2023-06-10T01:04:36;8.90;;;5.80;;
62584;SDS011;48643;51.670;5.808;2023-06-10T01:09:37;7.88;;;5.95;;
62584;SDS011;48643;51.670;5.808;2023-06-10T01:12:31;8.80;;;5.57;;
62584;SDS011;48643;51.670;5.808;2023-06-10T01:15:05;10.70;;;6.25;;
62584;SDS011;48643;51.670;5.808;2023-06-10T01:17:36;8.50;;;5.90;;
62584;SDS011;48643;51.670;5.808;2023-06-10T01:20:20;8.77;;;6.18;;
62584;SDS011;48643;51.670;5.808;2023-06-10T01:22:47;9.98;;;5.90;;
62584;SDS011;48643;51.670;5.808;2023-06-10T01:25:14;9.38;;;5.90;;
62584;SDS011;48643;51.670;5.808;2023-06-10T01:27:42;8.00;;;6.17;;
62584;SDS011;48643;51.670;5.808;2023-06-10T01:30:18;9.38;;;5.93;;
62584;SDS011;48643;51.670;5.808;2023-06-10T01:32:50;8.40;;;6.07;;
62584;SDS011;48643;51.670;5.808;2023-06-10T01:35:17;6.85;;;5.78;;
62584;SDS011;48643;51.670;5.808;2023-06-10T01:37:46;7.15;;;5.88;;
62584;SDS011;48643;51.670;5.808;2023-06-10T01:40:14;8.27;;;6.40;;
62584;SDS011;48643;51.670;5.808;2023-06-10T01:42:42;8.02;;;6.35;;
62584;SDS011;48643;51.670;5.808;2023-06-10T01:45:11;8.73;;;6.57;;
62584;SDS011;48643;51.670;5.808;2023-06-10T01:47:38;7.97;;;6.10;;
62584;SDS011;48643;51.670;5.808;2023-06-10T01:50:05;9.23;;;6.20;;
62584;SDS011;48643;51.670;5.808;2023-06-10T01:52:34;11.18;;;6.00;;
62584;SDS011;48643;51.670;5.808;2023-06-10T01:55:01;8.75;;;6.40;;
62584;SDS011;48643;51.670;5.808;2023-06-10T01:57:28;9.98;;;6.60;;
62584;SDS011;48643;51.670;5.808;2023-06-10T01:59:54;9.88;;;6.10;;
62584;SDS011;48643;51.670;5.808;2023-06-10T02:02:21;11.38;;;6.63;;
62584;SDS011;48643;51.670;5.808;2023-06-10T02:04:48;8.45;;;6.30;;
62584;SDS011;48643;51.670;5.808;2023-06-10T02:07:15;7.68;;;5.97;;
62584;SDS011;48643;51.670;5.808;2023-06-10T02:09:42;9.43;;;6.35;;
62584;SDS011;48643;51.670;5.808;2023-06-10T02:12:09;8.52;;;5.97;;
62584;SDS011;48643;51.670;5.808;2023-06-10T02:14:36;7.15;;;6.03;;
62584;SDS011;48643;51.670;5.808;2023-06-10T02:17:03;8.50;;;6.30;;
62584;SDS011;48643;51.670;5.808;2023-06-10T02:19:30;9.18;;;6.03;;
62584;SDS011;48643;51.670;5.808;2023-06-10T02:21:57;8.25;;;6.32;;
62584;SDS011;48643;51.670;5.808;2023-06-10T02:24:24;8.80;;;6.43;;
62584;SDS011;48643;51.670;5.808;2023-06-10T02:26:51;9.85;;;6.65;;
62584;SDS011;48643;51.670;5.808;2023-06-10T02:29:19;10.48;;;6.22;;
62584;SDS011;48643;51.670;5.808;2023-06-10T02:31:46;8.25;;;6.10;;
62584;SDS011;48643;51.670;5.808;2023-06-10T02:34:13;7.53;;;6.28;;
62584;SDS011;48643;51.670;5.808;2023-06-10T02:36:41;8.65;;;5.97;;
62584;SDS011;48643;51.670;5.808;2023-06-10T02:39:07;9.35;;;6.13;;
62584;SDS011;48643;51.670;5.808;2023-06-10T02:41:35;7.55;;;6.15;;
62584;SDS011;48643;51.670;5.808;2023-06-10T02:44:02;9.23;;;6.30;;
62584;SDS011;48643;51.670;5.808;2023-06-10T02:46:29;9.75;;;6.47;;
62584;SDS011;48643;51.670;5.808;2023-06-10T02:48:56;10.95;;;6.60;;
62584;SDS011;48643;51.670;5.808;2023-06-10T02:51:24;8.80;;;6.30;;
62584;SDS011;48643;51.670;5.808;2023-06-10T02:53:56;11.18;;;6.45;;
62584;SDS011;48643;51.670;5.808;2023-06-10T02:56:23;8.25;;;6.18;;
62584;SDS011;48643;51.670;5.808;2023-06-10T02:58:53;8.40;;;6.63;;
62584;SDS011;48643;51.670;5.808;2023-06-10T03:01:21;11.95;;;6.78;;
62584;SDS011;48643;51.670;5.808;2023-06-10T03:03:56;9.43;;;6.70;;
62584;SDS011;48643;51.670;5.808;2023-06-10T03:06:23;10.88;;;6.28;;
62584;SDS011;48643;51.670;5.808;2023-06-10T03:08:53;7.80;;;6.15;;
62584;SDS011;48643;51.670;5.808;2023-06-10T03:11:20;8.23;;;6.07;;
62584;SDS011;48643;51.670;5.808;2023-06-10T03:13:48;8.65;;;5.90;;
62584;SDS011;48643;51.670;5.808;2023-06-10T03:18:45;11.93;;;6.20;;
62584;SDS011;48643;51.670;5.808;2023-06-10T03:21:12;9.20;;;6.50;;
62584;SDS011;48643;51.670;5.808;2023-06-10T03:23:39;9.35;;;6.05;;
62584;SDS011;48643;51.670;5.808;2023-06-10T03:26:06;10.80;;;6.20;;
62584;SDS011;48643;51.670;5.808;2023-06-10T03:28:36;8.23;;;6.35;;
62584;SDS011;48643;51.670;5.808;2023-06-10T03:31:03;9.52;;;6.80;;
62584;SDS011;48643;51.670;5.808;2023-06-10T03:33:31;8.82;;;6.13;;
62584;SDS011;48643;51.670;5.808;2023-06-10T03:35:59;8.90;;;6.15;;
62584;SDS011;48643;51.670;5.808;2023-06-10T03:38:27;11.30;;;6.27;;
62584;SDS011;48643;51.670;5.808;2023-06-10T03:40:54;11.05;;;6.80;;
62584;SDS011;48643;51.670;5.808;2023-06-10T03:43:21;9.05;;;6.32;;
62584;SDS011;48643;51.670;5.808;2023-06-10T03:45:49;10.32;;;6.43;;
62584;SDS011;48643;51.670;5.808;2023-06-10T03:48:16;12.40;;;7.00;;
62584;SDS011;48643;51.670;5.808;2023-06-10T03:50:47;7.05;;;5.75;;
62584;SDS011;48643;51.670;5.808;2023-06-10T03:53:17;10.52;;;6.70;;
62584;SDS011;48643;51.670;5.808;2023-06-10T03:55:44;8.60;;;6.05;;
62584;SDS011;48643;51.670;5.808;2023-06-10T03:58:13;12.93;;;6.13;;
62584;SDS011;48643;51.670;5.808;2023-06-10T04:00:41;10.63;;;6.05;;
62584;SDS011;48643;51.670;5.808;2023-06-10T04:03:08;11.52;;;6.55;;
62584;SDS011;48643;51.670;5.808;2023-06-10T04:05:45;9.95;;;6.03;;
62584;SDS011;48643;51.670;5.808;2023-06-10T04:08:13;8.57;;;6.47;;
62584;SDS011;48643;51.670;5.808;2023-06-10T04:10:40;9.48;;;6.45;;
62584;SDS011;48643;51.670;5.808;2023-06-10T04:13:07;9.93;;;5.95;;
62584;SDS011;48643;51.670;5.808;2023-06-10T04:15:42;8.90;;;6.32;;
62584;SDS011;48643;51.670;5.808;2023-06-10T04:18:14;8.10;;;6.45;;
62584;SDS011;48643;51.670;5.808;2023-06-10T04:20:43;8.23;;;5.97;;
62584;SDS011;48643;51.670;5.808;2023-06-10T04:23:12;8.73;;;6.32;;
62584;SDS011;48643;51.670;5.808;2023-06-10T04:28:08;8.80;;;5.93;;
62584;SDS011;48643;51.670;5.808;2023-06-10T04:30:36;9.02;;;6.20;;
62584;SDS011;48643;51.670;5.808;2023-06-10T04:33:04;9.60;;;6.32;;
62584;SDS011;48643;51.670;5.808;2023-06-10T04:35:32;7.65;;;5.75;;
62584;SDS011;48643;51.670;5.808;2023-06-10T04:38:00;8.32;;;5.63;;
62584;SDS011;48643;51.670;5.808;2023-06-10T04:40:30;9.45;;;6.38;;
62584;SDS011;48643;51.670;5.808;2023-06-10T04:42:57;10.02;;;5.63;;
62584;SDS011;48643;51.670;5.808;2023-06-10T04:45:24;10.10;;;6.10;;
62584;SDS011;48643;51.670;5.808;2023-06-10T04:47:51;8.50;;;5.85;;
62584;SDS011;48643;51.670;5.808;2023-06-10T04:50:18;9.80;;;6.25;;
62584;SDS011;48643;51.670;5.808;2023-06-10T04:52:45;7.65;;;6.00;;
62584;SDS011;48643;51.670;5.808;2023-06-10T04:55:12;11.75;;;6.32;;
62584;SDS011;48643;51.670;5.808;2023-06-10T04:57:39;10.02;;;5.88;;
62584;SDS011;48643;51.670;5.808;2023-06-10T05:00:06;8.55;;;5.95;;
62584;SDS011;48643;51.670;5.808;2023-06-10T05:02:34;8.67;;;6.30;;
62584;SDS011;48643;51.670;5.808;2023-06-10T05:05:01;11.38;;;6.07;;
62584;SDS011;48643;51.670;5.808;2023-06-10T05:07:28;8.65;;;5.80;;
62584;SDS011;48643;51.670;5.808;2023-06-10T05:09:55;9.05;;;6.15;;
62584;SDS011;48643;51.670;5.808;2023-06-10T05:12:22;8.60;;;6.05;;
62584;SDS011;48643;51.670;5.808;2023-06-10T05:14:49;10.02;;;5.82;;
62584;SDS011;48643;51.670;5.808;2023-06-10T05:17:15;9.63;;;5.68;;
62584;SDS011;48643;51.670;5.808;2023-06-10T05:19:42;8.20;;;5.65;;
62584;SDS011;48643;51.670;5.808;2023-06-10T05:22:09;10.35;;;5.80;;
62584;SDS011;48643;51.670;5.808;2023-06-10T05:24:36;8.35;;;5.88;;
62584;SDS011;48643;51.670;5.808;2023-06-10T05:27:03;11.55;;;6.10;;
62584;SDS011;48643;51.670;5.808;2023-06-10T05:29:31;7.70;;;5.53;;
62584;SDS011;48643;51.670;5.808;2023-06-10T05:31:57;9.00;;;5.40;;
62584;SDS011;48643;51.670;5.808;2023-06-10T05:34:29;7.95;;;5.28;;
62584;SDS011;48643;51.670;5.808;2023-06-10T05:36:57;8.15;;;5.60;;
62584;SDS011;48643;51.670;5.808;2023-06-10T05:39:24;11.13;;;5.88;;
62584;SDS011;48643;51.670;5.808;2023-06-10T05:41:50;12.00;;;5.97;;
62584;SDS011;48643;51.670;5.808;2023-06-10T05:44:17;10.43;;;6.00;;
62584;SDS011;48643;51.670;5.808;2023-06-10T05:46:44;8.30;;;5.68;;
62584;SDS011;48643;51.670;5.808;2023-06-10T05:49:11;9.07;;;5.30;;
62584;SDS011;48643;51.670;5.808;2023-06-10T05:51:38;9.93;;;5.18;;
62584;SDS011;48643;51.670;5.808;2023-06-10T05:54:05;11.10;;;5.60;;
62584;SDS011;48643;51.670;5.808;2023-06-10T05:56:31;15.75;;;6.72;;
62584;SDS011;48643;51.670;5.808;2023-06-10T05:58:58;13.18;;;6.70;;
62584;SDS011;48643;51.670;5.808;2023-06-10T06:01:25;15.60;;;6.47;;
62584;SDS011;48643;51.670;5.808;2023-06-10T06:03:53;14.00;;;6.18;;
62584;SDS011;48643;51.670;5.808;2023-06-10T06:06:20;10.38;;;6.68;;
62584;SDS011;48643;51.670;5.808;2023-06-10T06:08:48;11.30;;;6.38;;
62584;SDS011;48643;51.670;5.808;2023-06-10T06:11:15;13.13;;;6.70;;
62584;SDS011;48643;51.670;5.808;2023-06-10T06:13:41;16.75;;;6.70;;
62584;SDS011;48643;51.670;5.808;2023-06-10T06:16:08;9.90;;;6.35;;
62584;SDS011;48643;51.670;5.808;2023-06-10T06:18:35;12.77;;;6.45;;
62584;SDS011;48643;51.670;5.808;2023-06-10T06:21:02;11.88;;;6.50;;
62584;SDS011;48643;51.670;5.808;2023-06-10T06:23:29;12.45;;;5.90;;
62584;SDS011;48643;51.670;5.808;2023-06-10T06:25:56;11.48;;;6.53;;
62584;SDS011;48643;51.670;5.808;2023-06-10T06:28:23;9.88;;;6.15;;
62584;SDS011;48643;51.670;5.808;2023-06-10T06:30:55;17.13;;;6.32;;
62584;SDS011;48643;51.670;5.808;2023-06-10T06:33:23;12.32;;;6.25;;
62584;SDS011;48643;51.670;5.808;2023-06-10T06:35:50;15.90;;;5.80;;
62584;SDS011;48643;51.670;5.808;2023-06-10T06:38:17;11.95;;;6.32;;
62584;SDS011;48643;51.670;5.808;2023-06-10T06:40:44;16.55;;;6.10;;
62584;SDS011;48643;51.670;5.808;2023-06-10T06:43:11;13.25;;;5.82;;
62584;SDS011;48643;51.670;5.808;2023-06-10T06:45:48;12.52;;;6.13;;
62584;SDS011;48643;51.670;5.808;2023-06-10T06:48:15;10.13;;;6.53;;
62584;SDS011;48643;51.670;5.808;2023-06-10T06:50:42;13.93;;;6.45;;
62584;SDS011;48643;51.670;5.808;2023-06-10T06:53:09;12.65;;;6.53;;
62584;SDS011;48643;51.670;5.808;2023-06-10T06:55:35;11.35;;;6.25;;
62584;SDS011;48643;51.670;5.808;2023-06-10T06:58:02;13.30;;;6.00;;
62584;SDS011;48643;51.670;5.808;2023-06-10T07:00:31;13.02;;;6.22;;
62584;SDS011;48643;51.670;5.808;2023-06-10T07:02:58;17.85;;;6.38;;
62584;SDS011;48643;51.670;5.808;2023-06-10T07:05:25;9.00;;;6.22;;
62584;SDS011;48643;51.670;5.808;2023-06-10T07:07:54;10.05;;;5.93;;
62584;SDS011;48643;51.670;5.808;2023-06-10T07:10:22;12.05;;;6.30;;
62584;SDS011;48643;51.670;5.808;2023-06-10T07:12:52;13.15;;;6.20;;
62584;SDS011;48643;51.670;5.808;2023-06-10T07:15:19;12.38;;;6.78;;
62584;SDS011;48643;51.670;5.808;2023-06-10T07:17:46;14.77;;;6.03;;
62584;SDS011;48643;51.670;5.808;2023-06-10T07:20:13;11.85;;;5.80;;
62584;SDS011;48643;51.670;5.808;2023-06-10T07:22:41;14.88;;;6.20;;
62584;SDS011;48643;51.670;5.808;2023-06-10T07:25:08;13.73;;;6.50;;
62584;SDS011;48643;51.670;5.808;2023-06-10T07:27:36;10.77;;;6.00;;
62584;SDS011;48643;51.670;5.808;2023-06-10T07:30:04;13.98;;;6.25;;
62584;SDS011;48643;51.670;5.808;2023-06-10T07:32:33;11.57;;;5.70;;
62584;SDS011;48643;51.670;5.808;2023-06-10T07:35:00;11.45;;;6.13;;
62584;SDS011;48643;51.670;5.808;2023-06-10T07:37:27;10.38;;;5.95;;
62584;SDS011;48643;51.670;5.808;2023-06-10T07:39:54;10.98;;;5.75;;
62584;SDS011;48643;51.670;5.808;2023-06-10T07:42:22;14.25;;;6.25;;
62584;SDS011;48643;51.670;5.808;2023-06-10T07:44:49;13.55;;;6.22;;
62584;SDS011;48643;51.670;5.808;2023-06-10T07:47:15;11.18;;;6.00;;
62584;SDS011;48643;51.670;5.808;2023-06-10T07:49:42;10.63;;;6.30;;
62584;SDS011;48643;51.670;5.808;2023-06-10T07:52:09;11.68;;;5.68;;
62584;SDS011;48643;51.670;5.808;2023-06-10T07:54:36;10.20;;;6.05;;
62584;SDS011;48643;51.670;5.808;2023-06-10T07:57:03;10.00;;;5.70;;
62584;SDS011;48643;51.670;5.808;2023-06-10T07:59:30;9.30;;;5.50;;
62584;SDS011;48643;51.670;5.808;2023-06-10T08:01:56;14.73;;;6.00;;
62584;SDS011;48643;51.670;5.808;2023-06-10T08:04:23;12.45;;;5.90;;
62584;SDS011;48643;51.670;5.808;2023-06-10T08:06:50;11.07;;;5.80;;
62584;SDS011;48643;51.670;5.808;2023-06-10T08:09:17;12.85;;;6.00;;
62584;SDS011;48643;51.670;5.808;2023-06-10T08:11:46;12.07;;;5.80;;
62584;SDS011;48643;51.670;5.808;2023-06-10T08:14:13;11.45;;;5.68;;
62584;SDS011;48643;51.670;5.808;2023-06-10T08:16:40;12.35;;;5.53;;
62584;SDS011;48643;51.670;5.808;2023-06-10T08:19:09;14.45;;;5.60;;
62584;SDS011;48643;51.670;5.808;2023-06-10T08:21:36;10.80;;;5.50;;
62584;SDS011;48643;51.670;5.808;2023-06-10T08:24:03;14.70;;;6.25;;
62584;SDS011;48643;51.670;5.808;2023-06-10T08:26:30;10.15;;;5.82;;
62584;SDS011;48643;51.670;5.808;2023-06-10T08:28:57;10.20;;;5.85;;
62584;SDS011;48643;51.670;5.808;2023-06-10T08:31:24;12.30;;;6.07;;
62584;SDS011;48643;51.670;5.808;2023-06-10T08:33:51;10.52;;;5.55;;
62584;SDS011;48643;51.670;5.808;2023-06-10T08:36:17;10.65;;;5.75;;
62584;SDS011;48643;51.670;5.808;2023-06-10T08:38:44;11.25;;;5.70;;
62584;SDS011;48643;51.670;5.808;2023-06-10T08:41:12;12.98;;;5.90;;
62584;SDS011;48643;51.670;5.808;2023-06-10T08:43:45;10.85;;;5.45;;
62584;SDS011;48643;51.670;5.808;2023-06-10T08:46:14;15.23;;;5.88;;
62584;SDS011;48643;51.670;5.808;2023-06-10T08:48:42;12.48;;;6.07;;
62584;SDS011;48643;51.670;5.808;2023-06-10T08:51:11;11.32;;;5.53;;
62584;SDS011;48643;51.670;5.808;2023-06-10T08:53:38;12.02;;;5.45;;
62584;SDS011;48643;51.670;5.808;2023-06-10T08:56:14;9.30;;;5.45;;
62584;SDS011;48643;51.670;5.808;2023-06-10T08:58:42;8.85;;;5.63;;
62584;SDS011;48643;51.670;5.808;2023-06-10T09:01:09;10.55;;;5.53;;
62584;SDS011;48643;51.670;5.808;2023-06-10T09:03:37;9.95;;;5.43;;
62584;SDS011;48643;51.670;5.808;2023-06-10T09:06:04;12.73;;;5.65;;
62584;SDS011;48643;51.670;5.808;2023-06-10T09:08:33;10.13;;;5.78;;
62584;SDS011;48643;51.670;5.808;2023-06-10T09:11:01;10.40;;;5.90;;
62584;SDS011;48643;51.670;5.808;2023-06-10T09:13:28;15.00;;;5.80;;
62584;SDS011;48643;51.670;5.808;2023-06-10T09:15:55;10.73;;;6.03;;
62584;SDS011;48643;51.670;5.808;2023-06-10T09:18:27;9.70;;;5.18;;
62584;SDS011;48643;51.670;5.808;2023-06-10T09:20:54;13.32;;;5.88;;
62584;SDS011;48643;51.670;5.808;2023-06-10T09:23:21;11.93;;;5.68;;
62584;SDS011;48643;51.670;5.808;2023-06-10T09:25:55;8.95;;;5.65;;
62584;SDS011;48643;51.670;5.808;2023-06-10T09:28:24;11.82;;;6.00;;
62584;SDS011;48643;51.670;5.808;2023-06-10T09:31:01;10.85;;;5.70;;
62584;SDS011;48643;51.670;5.808;2023-06-10T09:33:29;13.68;;;6.18;;
62584;SDS011;48643;51.670;5.808;2023-06-10T09:35:56;14.27;;;5.90;;
62584;SDS011;48643;51.670;5.808;2023-06-10T09:38:30;17.27;;;6.28;;
62584;SDS011;48643;51.670;5.808;2023-06-10T09:40:58;8.07;;;5.70;;
62584;SDS011;48643;51.670;5.808;2023-06-10T09:43:44;12.80;;;5.60;;
62584;SDS011;48643;51.670;5.808;2023-06-10T09:46:16;14.35;;;5.63;;
62584;SDS011;48643;51.670;5.808;2023-06-10T09:48:44;12.07;;;5.55;;
62584;SDS011;48643;51.670;5.808;2023-06-10T09:51:13;12.60;;;5.60;;
62584;SDS011;48643;51.670;5.808;2023-06-10T09:53:41;15.00;;;5.40;;
62584;SDS011;48643;51.670;5.808;2023-06-10T09:56:08;11.90;;;5.38;;
62584;SDS011;48643;51.670;5.808;2023-06-10T10:01:04;15.57;;;5.68;;
62584;SDS011;48643;51.670;5.808;2023-06-10T10:03:32;11.57;;;5.75;;
62584;SDS011;48643;51.670;5.808;2023-06-10T10:05:59;12.98;;;5.93;;
62584;SDS011;48643;51.670;5.808;2023-06-10T10:08:29;11.43;;;6.10;;
62584;SDS011;48643;51.670;5.808;2023-06-10T10:10:56;11.40;;;5.68;;
62584;SDS011;48643;51.670;5.808;2023-06-10T10:13:24;9.63;;;6.00;;
62584;SDS011;48643;51.670;5.808;2023-06-10T10:15:53;13.73;;;5.90;;
62584;SDS011;48643;51.670;5.808;2023-06-10T10:18:22;13.50;;;5.75;;
62584;SDS011;48643;51.670;5.808;2023-06-10T10:20:55;14.88;;;5.85;;
62584;SDS011;48643;51.670;5.808;2023-06-10T10:23:24;15.65;;;5.75;;
62584;SDS011;48643;51.670;5.808;2023-06-10T10:25:56;14.75;;;5.60;;
62584;SDS011;48643;51.670;5.808;2023-06-10T10:28:24;18.48;;;6.28;;
62584;SDS011;48643;51.670;5.808;2023-06-10T10:30:54;17.85;;;5.90;;
62584;SDS011;48643;51.670;5.808;2023-06-10T10:33:22;12.25;;;6.10;;
62584;SDS011;48643;51.670;5.808;2023-06-10T10:35:53;11.00;;;5.90;;
62584;SDS011;48643;51.670;5.808;2023-06-10T10:38:21;12.82;;;5.78;;
62584;SDS011;48643;51.670;5.808;2023-06-10T10:40:47;10.80;;;5.33;;
62584;SDS011;48643;51.670;5.808;2023-06-10T10:43:14;8.93;;;5.40;;
62584;SDS011;48643;51.670;5.808;2023-06-10T10:45:42;9.82;;;5.38;;
62584;SDS011;48643;51.670;5.808;2023-06-10T10:48:12;12.35;;;5.75;;
62584;SDS011;48643;51.670;5.808;2023-06-10T10:50:39;12.80;;;5.60;;
62584;SDS011;48643;51.670;5.808;2023-06-10T10:53:07;15.75;;;5.78;;
62584;SDS011;48643;51.670;5.808;2023-06-10T10:55:33;16.58;;;5.70;;
62584;SDS011;48643;51.670;5.808;2023-06-10T10:58:04;16.02;;;6.00;;
62584;SDS011;48643;51.670;5.808;2023-06-10T11:03:04;14.63;;;5.95;;
62584;SDS011;48643;51.670;5.808;2023-06-10T11:05:38;9.25;;;6.05;;
62584;SDS011;48643;51.670;5.808;2023-06-10T11:08:15;11.43;;;5.20;;
62584;SDS011;48643;51.670;5.808;2023-06-10T11:10:51;14.15;;;5.95;;
62584;SDS011;48643;51.670;5.808;2023-06-10T11:13:21;15.43;;;5.68;;
62584;SDS011;48643;51.670;5.808;2023-06-10T11:15:49;12.05;;;5.80;;
62584;SDS011;48643;51.670;5.808;2023-06-10T11:18:23;8.50;;;5.43;;
62584;SDS011;48643;51.670;5.808;2023-06-10T11:21:00;7.43;;;5.25;;
62584;SDS011;48643;51.670;5.808;2023-06-10T11:26:10;9.30;;;5.70;;
62584;SDS011;48643;51.670;5.808;2023-06-10T11:28:41;11.57;;;5.47;;
62584;SDS011;48643;51.670;5.808;2023-06-10T11:31:09;13.15;;;5.68;;
62584;SDS011;48643;51.670;5.808;2023-06-10T11:33:49;11.95;;;5.40;;
62584;SDS011;48643;51.670;5.808;2023-06-10T11:36:37;8.02;;;5.45;;
62584;SDS011;48643;51.670;5.808;2023-06-10T11:39:06;8.57;;;5.45;;
62584;SDS011;48643;51.670;5.808;2023-06-10T11:41:34;7.95;;;5.50;;
62584;SDS011;48643;51.670;5.808;2023-06-10T11:44:03;14.38;;;5.30;;
62584;SDS011;48643;51.670;5.808;2023-06-10T11:46:30;10.85;;;5.18;;
62584;SDS011;48643;51.670;5.808;2023-06-10T11:48:58;9.77;;;5.50;;
62584;SDS011;48643;51.670;5.808;2023-06-10T11:53:53;10.77;;;5.38;;
62584;SDS011;48643;51.670;5.808;2023-06-10T11:56:25;15.45;;;6.07;;
62584;SDS011;48643;51.670;5.808;2023-06-10T11:58:53;15.85;;;5.22;;
62584;SDS011;48643;51.670;5.808;2023-06-10T12:01:25;10.85;;;5.70;;
62584;SDS011;48643;51.670;5.808;2023-06-10T12:03:59;10.13;;;5.80;;
62584;SDS011;48643;51.670;5.808;2023-06-10T12:06:43;13.20;;;5.32;;
62584;SDS011;48643;51.670;5.808;2023-06-10T12:09:23;9.05;;;5.50;;
62584;SDS011;48643;51.670;5.808;2023-06-10T12:11:57;9.07;;;5.63;;
62584;SDS011;48643;51.670;5.808;2023-06-10T12:20:00;8.77;;;5.72;;
62584;SDS011;48643;51.670;5.808;2023-06-10T12:22:36;9.82;;;5.45;;
62584;SDS011;48643;51.670;5.808;2023-06-10T12:25:04;11.52;;;5.50;;
62584;SDS011;48643;51.670;5.808;2023-06-10T12:27:34;12.05;;;5.60;;
62584;SDS011;48643;51.670;5.808;2023-06-10T12:30:02;10.95;;;5.90;;
62584;SDS011;48643;51.670;5.808;2023-06-10T12:32:49;8.95;;;5.82;;
62584;SDS011;48643;51.670;5.808;2023-06-10T12:35:17;8.15;;;5.68;;
62584;SDS011;48643;51.670;5.808;2023-06-10T12:38:04;10.50;;;5.43;;
62584;SDS011;48643;51.670;5.808;2023-06-10T12:40:35;10.10;;;6.43;;
62584;SDS011;48643;51.670;5.808;2023-06-10T12:43:03;11.23;;;6.07;;
62584;SDS011;48643;51.670;5.808;2023-06-10T12:45:34;6.78;;;5.50;;
62584;SDS011;48643;51.670;5.808;2023-06-10T12:50:36;8.88;;;5.63;;
62584;SDS011;48643;51.670;5.808;2023-06-10T12:53:05;12.27;;;6.20;;
62584;SDS011;48643;51.670;5.808;2023-06-10T12:55:33;15.23;;;6.13;;
62584;SDS011;48643;51.670;5.808;2023-06-10T12:58:00;8.85;;;5.80;;
62584;SDS011;48643;51.670;5.808;2023-06-10T13:00:28;9.25;;;6.18;;
62584;SDS011;48643;51.670;5.808;2023-06-10T13:02:56;7.78;;;5.75;;
62584;SDS011;48643;51.670;5.808;2023-06-10T13:05:26;10.13;;;5.75;;
62584;SDS011;48643;51.670;5.808;2023-06-10T13:07:54;11.88;;;6.07;;
62584;SDS011;48643;51.670;5.808;2023-06-10T13:10:21;10.27;;;5.90;;
62584;SDS011;48643;51.670;5.808;2023-06-10T13:12:51;9.68;;;6.03;;
62584;SDS011;48643;51.670;5.808;2023-06-10T13:15:21;14.65;;;5.68;;
62584;SDS011;48643;51.670;5.808;2023-06-10T13:17:48;12.48;;;5.68;;
62584;SDS011;48643;51.670;5.808;2023-06-10T13:20:17;19.13;;;5.55;;
62584;SDS011;48643;51.670;5.808;2023-06-10T13:22:44;11.40;;;5.90;;
62584;SDS011;48643;51.670;5.808;2023-06-10T13:25:11;13.73;;;5.40;;
62584;SDS011;48643;51.670;5.808;2023-06-10T13:27:41;10.65;;;5.63;;
62584;SDS011;48643;51.670;5.808;2023-06-10T13:30:09;9.85;;;5.30;;
62584;SDS011;48643;51.670;5.808;2023-06-10T13:32:36;11.65;;;5.38;;
62584;SDS011;48643;51.670;5.808;2023-06-10T13:35:04;10.37;;;5.30;;
62584;SDS011;48643;51.670;5.808;2023-06-10T13:37:31;10.27;;;5.50;;
62584;SDS011;48643;51.670;5.808;2023-06-10T13:40:00;7.22;;;5.50;;
62584;SDS011;48643;51.670;5.808;2023-06-10T13:42:28;13.23;;;5.35;;
62584;SDS011;48643;51.670;5.808;2023-06-10T13:44:55;9.52;;;5.20;;
62584;SDS011;48643;51.670;5.808;2023-06-10T13:47:23;10.05;;;4.95;;
62584;SDS011;48643;51.670;5.808;2023-06-10T13:49:50;8.77;;;5.20;;
62584;SDS011;48643;51.670;5.808;2023-06-10T13:52:17;10.18;;;5.53;;
62584;SDS011;48643;51.670;5.808;2023-06-10T13:54:44;10.73;;;4.95;;
62584;SDS011;48643;51.670;5.808;2023-06-10T13:57:11;12.07;;;5.47;;
62584;SDS011;48643;51.670;5.808;2023-06-10T13:59:38;10.73;;;5.53;;
62584;SDS011;48643;51.670;5.808;2023-06-10T14:02:05;25.42;;;4.88;;
62584;SDS011;48643;51.670;5.808;2023-06-10T14:04:32;10.70;;;5.05;;
62584;SDS011;48643;51.670;5.808;2023-06-10T14:06:59;12.65;;;4.90;;
62584;SDS011;48643;51.670;5.808;2023-06-10T14:09:26;11.32;;;4.60;;
62584;SDS011;48643;51.670;5.808;2023-06-10T14:11:53;13.07;;;4.72;;
62584;SDS011;48643;51.670;5.808;2023-06-10T14:14:20;6.75;;;4.60;;
62584;SDS011;48643;51.670;5.808;2023-06-10T14:16:48;7.90;;;4.15;;
62584;SDS011;48643;51.670;5.808;2023-06-10T14:19:15;8.10;;;4.68;;
62584;SDS011;48643;51.670;5.808;2023-06-10T14:21:42;8.38;;;3.95;;
62584;SDS011;48643;51.670;5.808;2023-06-10T14:24:09;13.15;;;4.60;;
62584;SDS011;48643;51.670;5.808;2023-06-10T14:26:36;7.50;;;4.40;;
62584;SDS011;48643;51.670;5.808;2023-06-10T14:29:02;8.93;;;4.40;;
62584;SDS011;48643;51.670;5.808;2023-06-10T14:31:29;6.28;;;4.07;;
62584;SDS011;48643;51.670;5.808;2023-06-10T14:33:56;6.15;;;4.38;;
62584;SDS011;48643;51.670;5.808;2023-06-10T14:36:23;7.70;;;3.95;;
62584;SDS011;48643;51.670;5.808;2023-06-10T14:38:50;5.87;;;4.10;;
62584;SDS011;48643;51.670;5.808;2023-06-10T14:41:18;6.45;;;3.92;;
62584;SDS011;48643;51.670;5.808;2023-06-10T14:43:45;6.00;;;4.20;;
62584;SDS011;48643;51.670;5.808;2023-06-10T14:46:11;6.25;;;3.90;;
62584;SDS011;48643;51.670;5.808;2023-06-10T14:48:38;7.27;;;4.07;;
62584;SDS011;48643;51.670;5.808;2023-06-10T14:51:05;4.90;;;4.00;;
62584;SDS011;48643;51.670;5.808;2023-06-10T14:53:32;5.10;;;4.03;;
62584;SDS011;48643;51.670;5.808;2023-06-10T14:55:59;5.20;;;3.87;;
62584;SDS011;48643;51.670;5.808;2023-06-10T14:58:25;5.37;;;3.73;;
62584;SDS011;48643;51.670;5.808;2023-06-10T15:00:52;4.67;;;3.70;;
62584;SDS011;48643;51.670;5.808;2023-06-10T15:03:19;6.03;;;3.87;;
62584;SDS011;48643;51.670;5.808;2023-06-10T15:05:46;5.13;;;3.50;;
62584;SDS011;48643;51.670;5.808;2023-06-10T15:08:13;5.17;;;3.43;;
62584;SDS011;48643;51.670;5.808;2023-06-10T15:13:07;5.22;;;3.40;;
62584;SDS011;48643;51.670;5.808;2023-06-10T15:15:34;6.38;;;3.78;;